sensor_id;sensor_type;location;lat;lon;timestamp;P1;durP1;ratioP1;P2;durP2;ratioP2
27219;SDS011;45274;52.266;10.790;2023-11-19T00:00:33;1.20;;;1.10;;
27219;SDS011;45274;52.266;10.790;2023-11-19T00:02:59;1.20;;;1.08;;
27219;SDS011;45274;52.266;10.790;2023-11-19T00:05:25;5.93;;;1.08;;
27219;SDS011;45274;52.266;10.790;2023-11-19T00:07:50;1.25;;;1.15;;
27219;SDS011;45274;52.266;10.790;2023-11-19T00:10:16;1.55;;;0.95;;
27219;SDS011;45274;52.266;10.790;2023-11-19T00:12:44;1.38;;;0.85;;
27219;SDS011;45274;52.266;10.790;2023-11-19T00:15:11;1.75;;;0.90;;
27219;SDS011;45274;52.266;10.790;2023-11-19T00:17:40;1.23;;;1.00;;
27219;SDS011;45274;52.266;10.790;2023-11-19T00:20:16;0.95;;;0.90;;
27219;SDS011;45274;52.266;10.790;2023-11-19T00:22:43;1.20;;;0.88;;
27219;SDS011;45274;52.266;10.790;2023-11-19T00:25:08;1.40;;;0.90;;
27219;SDS011;45274;52.266;10.790;2023-11-19T00:27:34;1.08;;;0.80;;
27219;SDS011;45274;52.266;10.790;2023-11-19T00:30:00;1.60;;;0.90;;
27219;SDS011;45274;52.266;10.790;2023-11-19T00:32:26;0.80;;;0.70;;
27219;SDS011;45274;52.266;10.790;2023-11-19T00:34:51;1.00;;;0.90;;
27219;SDS011;45274;52.266;10.790;2023-11-19T00:37:17;0.63;;;0.63;;
27219;SDS011;45274;52.266;10.790;2023-11-19T00:39:42;0.60;;;0.60;;
27219;SDS011;45274;52.266;10.790;2023-11-19T00:42:11;0.60;;;0.60;;
27219;SDS011;45274;52.266;10.790;2023-11-19T00:44:36;1.02;;;0.70;;
27219;SDS011;45274;52.266;10.790;2023-11-19T00:47:02;0.60;;;0.60;;
27219;SDS011;45274;52.266;10.790;2023-11-19T00:49:27;3.15;;;0.70;;
27219;SDS011;45274;52.266;10.790;2023-11-19T00:51:53;1.50;;;0.80;;
27219;SDS011;45274;52.266;10.790;2023-11-19T00:54:18;0.65;;;0.50;;
27219;SDS011;45274;52.266;10.790;2023-11-19T00:56:44;0.73;;;0.60;;
27219;SDS011;45274;52.266;10.790;2023-11-19T00:59:09;0.70;;;0.70;;
27219;SDS011;45274;52.266;10.790;2023-11-19T01:01:35;2.50;;;0.70;;
27219;SDS011;45274;52.266;10.790;2023-11-19T01:04:01;0.90;;;0.70;;
27219;SDS011;45274;52.266;10.790;2023-11-19T01:06:29;1.00;;;0.60;;
27219;SDS011;45274;52.266;10.790;2023-11-19T01:08:56;2.90;;;0.80;;
27219;SDS011;45274;52.266;10.790;2023-11-19T01:11:22;0.90;;;0.90;;
27219;SDS011;45274;52.266;10.790;2023-11-19T01:13:48;0.70;;;0.70;;
27219;SDS011;45274;52.266;10.790;2023-11-19T01:16:14;1.45;;;0.77;;
27219;SDS011;45274;52.266;10.790;2023-11-19T01:18:39;1.15;;;0.68;;
27219;SDS011;45274;52.266;10.790;2023-11-19T01:21:05;0.80;;;0.70;;
27219;SDS011;45274;52.266;10.790;2023-11-19T01:23:30;1.30;;;0.90;;
27219;SDS011;45274;52.266;10.790;2023-11-19T01:25:56;0.60;;;0.60;;
27219;SDS011;45274;52.266;10.790;2023-11-19T01:28:21;0.70;;;0.70;;
27219;SDS011;45274;52.266;10.790;2023-11-19T01:30:46;0.60;;;0.60;;
27219;SDS011;45274;52.266;10.790;2023-11-19T01:33:15;0.60;;;0.60;;
27219;SDS011;45274;52.266;10.790;2023-11-19T01:35:40;0.68;;;0.60;;
27219;SDS011;45274;52.266;10.790;2023-11-19T01:38:06;0.40;;;0.40;;
27219;SDS011;45274;52.266;10.790;2023-11-19T01:40:33;0.65;;;0.65;;
27219;SDS011;45274;52.266;10.790;2023-11-19T01:42:59;0.45;;;0.45;;
27219;SDS011;45274;52.266;10.790;2023-11-19T01:45:28;0.60;;;0.60;;
27219;SDS011;45274;52.266;10.790;2023-11-19T01:47:55;1.25;;;0.32;;
27219;SDS011;45274;52.266;10.790;2023-11-19T01:50:25;1.00;;;0.50;;
27219;SDS011;45274;52.266;10.790;2023-11-19T01:52:54;0.40;;;0.40;;
27219;SDS011;45274;52.266;10.790;2023-11-19T01:55:22;0.40;;;0.40;;
27219;SDS011;45274;52.266;10.790;2023-11-19T01:57:49;1.05;;;0.60;;
27219;SDS011;45274;52.266;10.790;2023-11-19T02:00:16;0.93;;;0.60;;
27219;SDS011;45274;52.266;10.790;2023-11-19T02:02:44;1.13;;;0.75;;
27219;SDS011;45274;52.266;10.790;2023-11-19T02:05:11;0.60;;;0.50;;
27219;SDS011;45274;52.266;10.790;2023-11-19T02:07:38;0.65;;;0.50;;
27219;SDS011;45274;52.266;10.790;2023-11-19T02:10:03;0.57;;;0.57;;
27219;SDS011;45274;52.266;10.790;2023-11-19T02:12:30;0.45;;;0.45;;
27219;SDS011;45274;52.266;10.790;2023-11-19T02:15:00;0.80;;;0.52;;
27219;SDS011;45274;52.266;10.790;2023-11-19T02:17:28;0.60;;;0.47;;
27219;SDS011;45274;52.266;10.790;2023-11-19T02:19:56;0.80;;;0.57;;
27219;SDS011;45274;52.266;10.790;2023-11-19T02:22:22;0.60;;;0.50;;
27219;SDS011;45274;52.266;10.790;2023-11-19T02:24:47;0.57;;;0.45;;
27219;SDS011;45274;52.266;10.790;2023-11-19T02:27:23;0.40;;;0.40;;
27219;SDS011;45274;52.266;10.790;2023-11-19T02:29:56;0.40;;;0.40;;
27219;SDS011;45274;52.266;10.790;2023-11-19T02:32:22;0.40;;;0.40;;
27219;SDS011;45274;52.266;10.790;2023-11-19T02:34:48;0.93;;;0.40;;
27219;SDS011;45274;52.266;10.790;2023-11-19T02:37:14;2.13;;;0.45;;
27219;SDS011;45274;52.266;10.790;2023-11-19T02:39:40;1.35;;;0.43;;
27219;SDS011;45274;52.266;10.790;2023-11-19T02:42:06;0.32;;;0.32;;
27219;SDS011;45274;52.266;10.790;2023-11-19T02:44:33;1.00;;;0.40;;
27219;SDS011;45274;52.266;10.790;2023-11-19T02:46:59;0.95;;;0.40;;
27219;SDS011;45274;52.266;10.790;2023-11-19T02:49:25;0.30;;;0.30;;
27219;SDS011;45274;52.266;10.790;2023-11-19T02:51:50;0.40;;;0.40;;
27219;SDS011;45274;52.266;10.790;2023-11-19T02:54:16;1.23;;;0.40;;
27219;SDS011;45274;52.266;10.790;2023-11-19T02:56:44;0.40;;;0.40;;
27219;SDS011;45274;52.266;10.790;2023-11-19T02:59:13;0.30;;;0.30;;
27219;SDS011;45274;52.266;10.790;2023-11-19T03:01:52;5.47;;;0.55;;
27219;SDS011;45274;52.266;10.790;2023-11-19T03:04:18;0.38;;;0.20;;
27219;SDS011;45274;52.266;10.790;2023-11-19T03:06:45;0.57;;;0.20;;
27219;SDS011;45274;52.266;10.790;2023-11-19T03:09:11;5.28;;;0.30;;
27219;SDS011;45274;52.266;10.790;2023-11-19T03:11:36;0.68;;;0.40;;
27219;SDS011;45274;52.266;10.790;2023-11-19T03:14:02;0.40;;;0.30;;
27219;SDS011;45274;52.266;10.790;2023-11-19T03:16:30;2.22;;;0.35;;
27219;SDS011;45274;52.266;10.790;2023-11-19T03:18:56;0.50;;;0.30;;
27219;SDS011;45274;52.266;10.790;2023-11-19T03:21:28;0.10;;;0.10;;
27219;SDS011;45274;52.266;10.790;2023-11-19T03:26:19;0.20;;;0.20;;
27219;SDS011;45274;52.266;10.790;2023-11-19T03:28:44;0.20;;;0.20;;
27219;SDS011;45274;52.266;10.790;2023-11-19T03:31:10;0.60;;;0.30;;
27219;SDS011;45274;52.266;10.790;2023-11-19T03:33:35;0.32;;;0.20;;
27219;SDS011;45274;52.266;10.790;2023-11-19T03:36:02;0.20;;;0.20;;
27219;SDS011;45274;52.266;10.790;2023-11-19T03:38:28;0.47;;;0.20;;
27219;SDS011;45274;52.266;10.790;2023-11-19T03:40:53;0.30;;;0.30;;
27219;SDS011;45274;52.266;10.790;2023-11-19T03:43:18;0.20;;;0.20;;
27219;SDS011;45274;52.266;10.790;2023-11-19T03:45:44;1.00;;;0.20;;
27219;SDS011;45274;52.266;10.790;2023-11-19T03:48:09;0.77;;;0.30;;
27219;SDS011;45274;52.266;10.790;2023-11-19T03:50:35;0.43;;;0.30;;
27219;SDS011;45274;52.266;10.790;2023-11-19T03:53:00;0.30;;;0.28;;
27219;SDS011;45274;52.266;10.790;2023-11-19T03:55:26;0.73;;;0.40;;
27219;SDS011;45274;52.266;10.790;2023-11-19T03:57:51;0.30;;;0.30;;
27219;SDS011;45274;52.266;10.790;2023-11-19T04:00:17;1.40;;;0.43;;
27219;SDS011;45274;52.266;10.790;2023-11-19T04:02:42;0.30;;;0.30;;
27219;SDS011;45274;52.266;10.790;2023-11-19T04:05:08;0.43;;;0.43;;
27219;SDS011;45274;52.266;10.790;2023-11-19T04:07:34;1.20;;;0.40;;
27219;SDS011;45274;52.266;10.790;2023-11-19T04:10:00;1.90;;;0.57;;
27219;SDS011;45274;52.266;10.790;2023-11-19T04:12:25;0.50;;;0.50;;
27219;SDS011;45274;52.266;10.790;2023-11-19T04:14:51;0.20;;;0.20;;
27219;SDS011;45274;52.266;10.790;2023-11-19T04:17:16;0.70;;;0.47;;
27219;SDS011;45274;52.266;10.790;2023-11-19T04:19:42;1.08;;;0.40;;
27219;SDS011;45274;52.266;10.790;2023-11-19T04:22:08;0.30;;;0.30;;
27219;SDS011;45274;52.266;10.790;2023-11-19T04:24:34;0.40;;;0.40;;
27219;SDS011;45274;52.266;10.790;2023-11-19T04:27:00;0.70;;;0.40;;
27219;SDS011;45274;52.266;10.790;2023-11-19T04:29:25;0.43;;;0.43;;
27219;SDS011;45274;52.266;10.790;2023-11-19T04:31:50;0.75;;;0.60;;
27219;SDS011;45274;52.266;10.790;2023-11-19T04:34:16;0.35;;;0.35;;
27219;SDS011;45274;52.266;10.790;2023-11-19T04:36:41;0.30;;;0.30;;
27219;SDS011;45274;52.266;10.790;2023-11-19T04:39:07;0.73;;;0.47;;
27219;SDS011;45274;52.266;10.790;2023-11-19T04:41:49;0.60;;;0.40;;
27219;SDS011;45274;52.266;10.790;2023-11-19T04:44:15;1.52;;;0.50;;
27219;SDS011;45274;52.266;10.790;2023-11-19T04:46:42;4.03;;;0.70;;
27219;SDS011;45274;52.266;10.790;2023-11-19T04:49:14;0.98;;;0.70;;
27219;SDS011;45274;52.266;10.790;2023-11-19T04:51:43;1.40;;;0.70;;
27219;SDS011;45274;52.266;10.790;2023-11-19T04:54:10;1.23;;;0.77;;
27219;SDS011;45274;52.266;10.790;2023-11-19T04:56:36;0.70;;;0.60;;
27219;SDS011;45274;52.266;10.790;2023-11-19T04:59:02;2.70;;;0.85;;
27219;SDS011;45274;52.266;10.790;2023-11-19T05:01:28;0.90;;;0.68;;
27219;SDS011;45274;52.266;10.790;2023-11-19T05:03:53;1.10;;;0.90;;
27219;SDS011;45274;52.266;10.790;2023-11-19T05:06:18;2.05;;;0.90;;
27219;SDS011;45274;52.266;10.790;2023-11-19T05:08:45;1.65;;;0.93;;
27219;SDS011;45274;52.266;10.790;2023-11-19T05:11:11;2.70;;;1.10;;
27219;SDS011;45274;52.266;10.790;2023-11-19T05:13:43;1.73;;;0.90;;
27219;SDS011;45274;52.266;10.790;2023-11-19T05:16:10;2.20;;;1.02;;
27219;SDS011;45274;52.266;10.790;2023-11-19T05:18:39;3.25;;;1.20;;
27219;SDS011;45274;52.266;10.790;2023-11-19T05:21:05;2.22;;;1.20;;
27219;SDS011;45274;52.266;10.790;2023-11-19T05:23:30;3.88;;;1.20;;
27219;SDS011;45274;52.266;10.790;2023-11-19T05:25:56;2.40;;;1.02;;
27219;SDS011;45274;52.266;10.790;2023-11-19T05:28:23;1.92;;;1.42;;
27219;SDS011;45274;52.266;10.790;2023-11-19T05:30:49;2.92;;;1.00;;
27219;SDS011;45274;52.266;10.790;2023-11-19T05:33:15;2.70;;;1.40;;
27219;SDS011;45274;52.266;10.790;2023-11-19T05:35:40;3.45;;;1.52;;
27219;SDS011;45274;52.266;10.790;2023-11-19T05:38:06;2.95;;;1.55;;
27219;SDS011;45274;52.266;10.790;2023-11-19T05:40:31;4.15;;;1.23;;
27219;SDS011;45274;52.266;10.790;2023-11-19T05:42:57;1.88;;;1.05;;
27219;SDS011;45274;52.266;10.790;2023-11-19T05:45:23;2.75;;;1.00;;
27219;SDS011;45274;52.266;10.790;2023-11-19T05:47:48;1.00;;;0.88;;
27219;SDS011;45274;52.266;10.790;2023-11-19T05:50:14;3.70;;;1.00;;
27219;SDS011;45274;52.266;10.790;2023-11-19T05:52:39;3.53;;;0.80;;
27219;SDS011;45274;52.266;10.790;2023-11-19T05:55:04;1.38;;;1.00;;
27219;SDS011;45274;52.266;10.790;2023-11-19T05:57:34;1.88;;;0.80;;
27219;SDS011;45274;52.266;10.790;2023-11-19T06:00:00;2.70;;;1.02;;
27219;SDS011;45274;52.266;10.790;2023-11-19T06:02:25;1.95;;;0.63;;
27219;SDS011;45274;52.266;10.790;2023-11-19T06:04:52;1.65;;;0.73;;
27219;SDS011;45274;52.266;10.790;2023-11-19T06:07:18;2.75;;;0.90;;
27219;SDS011;45274;52.266;10.790;2023-11-19T06:09:44;1.00;;;0.85;;
27219;SDS011;45274;52.266;10.790;2023-11-19T06:12:09;2.45;;;0.75;;
27219;SDS011;45274;52.266;10.790;2023-11-19T06:14:35;2.88;;;1.20;;
27219;SDS011;45274;52.266;10.790;2023-11-19T06:17:00;2.42;;;0.93;;
27219;SDS011;45274;52.266;10.790;2023-11-19T06:19:25;1.88;;;0.90;;
27219;SDS011;45274;52.266;10.790;2023-11-19T06:21:51;2.33;;;0.85;;
27219;SDS011;45274;52.266;10.790;2023-11-19T06:24:16;3.85;;;1.00;;
27219;SDS011;45274;52.266;10.790;2023-11-19T06:26:42;2.72;;;0.85;;
27219;SDS011;45274;52.266;10.790;2023-11-19T06:29:07;3.25;;;1.20;;
27219;SDS011;45274;52.266;10.790;2023-11-19T06:31:32;1.63;;;0.90;;
27219;SDS011;45274;52.266;10.790;2023-11-19T06:33:58;3.75;;;1.10;;
27219;SDS011;45274;52.266;10.790;2023-11-19T06:36:23;5.78;;;1.33;;
27219;SDS011;45274;52.266;10.790;2023-11-19T06:38:49;4.60;;;1.30;;
27219;SDS011;45274;52.266;10.790;2023-11-19T06:41:14;4.18;;;1.00;;
27219;SDS011;45274;52.266;10.790;2023-11-19T06:43:40;7.05;;;1.40;;
27219;SDS011;45274;52.266;10.790;2023-11-19T06:46:05;5.57;;;1.65;;
27219;SDS011;45274;52.266;10.790;2023-11-19T06:48:34;4.65;;;1.30;;
27219;SDS011;45274;52.266;10.790;2023-11-19T06:50:59;4.50;;;1.40;;
27219;SDS011;45274;52.266;10.790;2023-11-19T06:53:25;4.75;;;1.55;;
27219;SDS011;45274;52.266;10.790;2023-11-19T06:55:52;5.80;;;1.50;;
27219;SDS011;45274;52.266;10.790;2023-11-19T06:58:18;5.05;;;1.50;;
27219;SDS011;45274;52.266;10.790;2023-11-19T07:00:43;6.38;;;1.58;;
27219;SDS011;45274;52.266;10.790;2023-11-19T07:03:10;5.80;;;1.77;;
27219;SDS011;45274;52.266;10.790;2023-11-19T07:05:36;4.72;;;1.77;;
27219;SDS011;45274;52.266;10.790;2023-11-19T07:08:03;6.20;;;1.83;;
27219;SDS011;45274;52.266;10.790;2023-11-19T07:10:29;8.65;;;2.55;;
27219;SDS011;45274;52.266;10.790;2023-11-19T07:12:55;7.25;;;1.63;;
27219;SDS011;45274;52.266;10.790;2023-11-19T07:15:21;10.88;;;1.67;;
27219;SDS011;45274;52.266;10.790;2023-11-19T07:17:46;6.13;;;1.27;;
27219;SDS011;45274;52.266;10.790;2023-11-19T07:20:13;6.45;;;1.65;;
27219;SDS011;45274;52.266;10.790;2023-11-19T07:22:42;7.05;;;1.52;;
27219;SDS011;45274;52.266;10.790;2023-11-19T07:25:10;3.47;;;1.15;;
27219;SDS011;45274;52.266;10.790;2023-11-19T07:27:40;5.57;;;1.10;;
27219;SDS011;45274;52.266;10.790;2023-11-19T07:30:06;3.78;;;1.60;;
27219;SDS011;45274;52.266;10.790;2023-11-19T07:32:34;4.85;;;1.23;;
27219;SDS011;45274;52.266;10.790;2023-11-19T07:35:00;6.72;;;1.77;;
27219;SDS011;45274;52.266;10.790;2023-11-19T07:37:25;4.53;;;1.30;;
27219;SDS011;45274;52.266;10.790;2023-11-19T07:39:51;5.72;;;1.38;;
27219;SDS011;45274;52.266;10.790;2023-11-19T07:42:16;5.20;;;1.65;;
27219;SDS011;45274;52.266;10.790;2023-11-19T07:44:43;9.18;;;1.27;;
27219;SDS011;45274;52.266;10.790;2023-11-19T07:47:08;9.07;;;1.40;;
27219;SDS011;45274;52.266;10.790;2023-11-19T07:49:34;9.77;;;1.95;;
27219;SDS011;45274;52.266;10.790;2023-11-19T07:51:59;6.43;;;1.48;;
27219;SDS011;45274;52.266;10.790;2023-11-19T07:54:25;5.82;;;1.63;;
27219;SDS011;45274;52.266;10.790;2023-11-19T07:56:50;9.07;;;1.70;;
27219;SDS011;45274;52.266;10.790;2023-11-19T07:59:15;6.63;;;1.52;;
27219;SDS011;45274;52.266;10.790;2023-11-19T08:01:41;9.73;;;1.88;;
27219;SDS011;45274;52.266;10.790;2023-11-19T08:04:06;7.38;;;1.88;;
27219;SDS011;45274;52.266;10.790;2023-11-19T08:06:32;6.25;;;1.88;;
27219;SDS011;45274;52.266;10.790;2023-11-19T08:08:57;8.35;;;1.83;;
27219;SDS011;45274;52.266;10.790;2023-11-19T08:11:23;8.30;;;2.50;;
27219;SDS011;45274;52.266;10.790;2023-11-19T08:13:48;5.30;;;1.80;;
27219;SDS011;45274;52.266;10.790;2023-11-19T08:16:14;6.72;;;2.10;;
27219;SDS011;45274;52.266;10.790;2023-11-19T08:18:41;5.80;;;1.83;;
27219;SDS011;45274;52.266;10.790;2023-11-19T08:21:08;10.35;;;2.35;;
27219;SDS011;45274;52.266;10.790;2023-11-19T08:23:34;10.40;;;2.78;;
27219;SDS011;45274;52.266;10.790;2023-11-19T08:25:59;9.70;;;1.92;;
27219;SDS011;45274;52.266;10.790;2023-11-19T08:28:25;8.82;;;2.30;;
27219;SDS011;45274;52.266;10.790;2023-11-19T08:30:50;9.18;;;1.95;;
27219;SDS011;45274;52.266;10.790;2023-11-19T08:33:16;6.50;;;1.90;;
27219;SDS011;45274;52.266;10.790;2023-11-19T08:35:42;9.13;;;2.35;;
27219;SDS011;45274;52.266;10.790;2023-11-19T08:38:07;13.27;;;2.95;;
27219;SDS011;45274;52.266;10.790;2023-11-19T08:40:33;12.93;;;2.67;;
27219;SDS011;45274;52.266;10.790;2023-11-19T08:42:58;10.02;;;2.63;;
27219;SDS011;45274;52.266;10.790;2023-11-19T08:45:23;14.60;;;2.80;;
27219;SDS011;45274;52.266;10.790;2023-11-19T08:47:50;15.93;;;2.95;;
27219;SDS011;45274;52.266;10.790;2023-11-19T08:50:15;15.98;;;2.72;;
27219;SDS011;45274;52.266;10.790;2023-11-19T08:52:41;13.00;;;3.53;;
27219;SDS011;45274;52.266;10.790;2023-11-19T08:55:06;18.98;;;4.07;;
27219;SDS011;45274;52.266;10.790;2023-11-19T08:57:32;10.35;;;2.80;;
27219;SDS011;45274;52.266;10.790;2023-11-19T08:59:58;18.60;;;3.53;;
27219;SDS011;45274;52.266;10.790;2023-11-19T09:02:24;22.02;;;3.60;;
27219;SDS011;45274;52.266;10.790;2023-11-19T09:04:49;19.33;;;3.83;;
27219;SDS011;45274;52.266;10.790;2023-11-19T09:07:15;18.63;;;3.55;;
27219;SDS011;45274;52.266;10.790;2023-11-19T09:09:40;16.55;;;4.10;;
27219;SDS011;45274;52.266;10.790;2023-11-19T09:12:05;22.88;;;4.32;;
27219;SDS011;45274;52.266;10.790;2023-11-19T09:14:31;22.13;;;3.95;;
27219;SDS011;45274;52.266;10.790;2023-11-19T09:16:57;20.75;;;4.05;;
27219;SDS011;45274;52.266;10.790;2023-11-19T09:19:23;15.15;;;3.22;;
27219;SDS011;45274;52.266;10.790;2023-11-19T09:21:48;25.73;;;4.15;;
27219;SDS011;45274;52.266;10.790;2023-11-19T09:24:14;23.25;;;4.45;;
27219;SDS011;45274;52.266;10.790;2023-11-19T09:26:40;14.98;;;3.75;;
27219;SDS011;45274;52.266;10.790;2023-11-19T09:29:07;18.13;;;4.13;;
27219;SDS011;45274;52.266;10.790;2023-11-19T09:31:32;21.20;;;4.20;;
27219;SDS011;45274;52.266;10.790;2023-11-19T09:33:58;20.60;;;4.47;;
27219;SDS011;45274;52.266;10.790;2023-11-19T09:36:23;23.35;;;4.07;;
27219;SDS011;45274;52.266;10.790;2023-11-19T09:38:49;22.00;;;4.25;;
27219;SDS011;45274;52.266;10.790;2023-11-19T09:41:14;21.05;;;3.72;;
27219;SDS011;45274;52.266;10.790;2023-11-19T09:43:40;22.15;;;3.88;;
27219;SDS011;45274;52.266;10.790;2023-11-19T09:46:08;23.75;;;4.03;;
27219;SDS011;45274;52.266;10.790;2023-11-19T09:48:36;21.90;;;3.90;;
27219;SDS011;45274;52.266;10.790;2023-11-19T09:51:03;20.48;;;4.15;;
27219;SDS011;45274;52.266;10.790;2023-11-19T09:53:30;19.90;;;3.67;;
27219;SDS011;45274;52.266;10.790;2023-11-19T09:55:56;19.77;;;4.25;;
27219;SDS011;45274;52.266;10.790;2023-11-19T09:58:25;25.23;;;4.28;;
27219;SDS011;45274;52.266;10.790;2023-11-19T10:00:51;16.80;;;3.38;;
27219;SDS011;45274;52.266;10.790;2023-11-19T10:03:17;16.80;;;3.67;;
27219;SDS011;45274;52.266;10.790;2023-11-19T10:05:42;20.40;;;3.40;;
27219;SDS011;45274;52.266;10.790;2023-11-19T10:08:08;19.10;;;2.83;;
27219;SDS011;45274;52.266;10.790;2023-11-19T10:10:34;16.88;;;2.80;;
27219;SDS011;45274;52.266;10.790;2023-11-19T10:12:59;22.33;;;3.90;;
27219;SDS011;45274;52.266;10.790;2023-11-19T10:15:25;21.23;;;3.92;;
27219;SDS011;45274;52.266;10.790;2023-11-19T10:17:52;27.15;;;3.95;;
27219;SDS011;45274;52.266;10.790;2023-11-19T10:20:20;19.60;;;3.58;;
27219;SDS011;45274;52.266;10.790;2023-11-19T10:22:45;22.08;;;4.13;;
27219;SDS011;45274;52.266;10.790;2023-11-19T10:25:24;22.13;;;3.90;;
27219;SDS011;45274;52.266;10.790;2023-11-19T10:27:52;20.15;;;3.63;;
27219;SDS011;45274;52.266;10.790;2023-11-19T10:30:19;20.08;;;4.03;;
27219;SDS011;45274;52.266;10.790;2023-11-19T10:32:57;23.75;;;3.80;;
27219;SDS011;45274;52.266;10.790;2023-11-19T10:35:55;22.90;;;4.07;;
27219;SDS011;45274;52.266;10.790;2023-11-19T10:38:24;19.15;;;3.30;;
27219;SDS011;45274;52.266;10.790;2023-11-19T10:40:52;17.85;;;3.50;;
27219;SDS011;45274;52.266;10.790;2023-11-19T10:43:19;20.20;;;3.55;;
27219;SDS011;45274;52.266;10.790;2023-11-19T10:45:47;34.47;;;4.07;;
27219;SDS011;45274;52.266;10.790;2023-11-19T10:48:12;19.25;;;3.72;;
27219;SDS011;45274;52.266;10.790;2023-11-19T10:50:38;22.75;;;4.65;;
27219;SDS011;45274;52.266;10.790;2023-11-19T10:53:05;17.58;;;3.15;;
27219;SDS011;45274;52.266;10.790;2023-11-19T10:55:38;20.13;;;3.83;;
27219;SDS011;45274;52.266;10.790;2023-11-19T10:58:05;24.25;;;3.75;;
27219;SDS011;45274;52.266;10.790;2023-11-19T11:03:05;23.65;;;4.32;;
27219;SDS011;45274;52.266;10.790;2023-11-19T11:05:35;24.48;;;3.83;;
27219;SDS011;45274;52.266;10.790;2023-11-19T11:08:03;22.92;;;3.72;;
27219;SDS011;45274;52.266;10.790;2023-11-19T11:10:31;24.58;;;4.13;;
27219;SDS011;45274;52.266;10.790;2023-11-19T11:13:02;25.40;;;4.32;;
27219;SDS011;45274;52.266;10.790;2023-11-19T11:15:28;20.63;;;4.10;;
27219;SDS011;45274;52.266;10.790;2023-11-19T11:17:59;19.17;;;3.47;;
27219;SDS011;45274;52.266;10.790;2023-11-19T11:20:27;20.80;;;3.35;;
27219;SDS011;45274;52.266;10.790;2023-11-19T11:23:02;14.40;;;3.05;;
27219;SDS011;45274;52.266;10.790;2023-11-19T11:25:45;21.55;;;3.35;;
27219;SDS011;45274;52.266;10.790;2023-11-19T11:28:39;22.00;;;3.13;;
27219;SDS011;45274;52.266;10.790;2023-11-19T11:39:35;19.88;;;3.28;;
27219;SDS011;45274;52.266;10.790;2023-11-19T11:50:19;18.63;;;3.38;;
27219;SDS011;45274;52.266;10.790;2023-11-19T11:55:26;21.10;;;3.65;;
27219;SDS011;45274;52.266;10.790;2023-11-19T11:57:52;18.60;;;3.30;;
27219;SDS011;45274;52.266;10.790;2023-11-19T12:03:05;23.75;;;4.00;;
27219;SDS011;45274;52.266;10.790;2023-11-19T12:05:32;22.45;;;3.50;;
27219;SDS011;45274;52.266;10.790;2023-11-19T12:08:09;28.02;;;4.03;;
27219;SDS011;45274;52.266;10.790;2023-11-19T12:10:37;20.70;;;3.85;;
27219;SDS011;45274;52.266;10.790;2023-11-19T12:13:10;19.48;;;3.95;;
27219;SDS011;45274;52.266;10.790;2023-11-19T12:18:22;17.95;;;3.90;;
27219;SDS011;45274;52.266;10.790;2023-11-19T12:20:48;17.90;;;4.15;;
27219;SDS011;45274;52.266;10.790;2023-11-19T12:23:14;19.63;;;3.78;;
27219;SDS011;45274;52.266;10.790;2023-11-19T12:25:40;21.50;;;3.95;;
27219;SDS011;45274;52.266;10.790;2023-11-19T12:28:06;20.77;;;4.43;;
27219;SDS011;45274;52.266;10.790;2023-11-19T12:30:36;25.85;;;4.22;;
27219;SDS011;45274;52.266;10.790;2023-11-19T12:33:07;22.25;;;3.80;;
27219;SDS011;45274;52.266;10.790;2023-11-19T12:35:39;17.67;;;3.40;;
27219;SDS011;45274;52.266;10.790;2023-11-19T12:38:05;19.13;;;3.70;;
27219;SDS011;45274;52.266;10.790;2023-11-19T12:40:31;19.00;;;3.65;;
27219;SDS011;45274;52.266;10.790;2023-11-19T12:42:56;20.98;;;3.75;;
27219;SDS011;45274;52.266;10.790;2023-11-19T12:45:22;22.23;;;3.78;;
27219;SDS011;45274;52.266;10.790;2023-11-19T12:48:04;31.40;;;4.72;;
27219;SDS011;45274;52.266;10.790;2023-11-19T12:53:25;23.88;;;3.83;;
27219;SDS011;45274;52.266;10.790;2023-11-19T12:55:51;23.27;;;4.32;;
27219;SDS011;45274;52.266;10.790;2023-11-19T13:01:03;18.45;;;3.65;;
27219;SDS011;45274;52.266;10.790;2023-11-19T13:03:31;27.58;;;4.10;;
27219;SDS011;45274;52.266;10.790;2023-11-19T13:06:01;25.65;;;4.57;;
27219;SDS011;45274;52.266;10.790;2023-11-19T13:08:28;26.17;;;4.53;;
27219;SDS011;45274;52.266;10.790;2023-11-19T13:11:00;23.52;;;4.55;;
27219;SDS011;45274;52.266;10.790;2023-11-19T13:13:25;21.02;;;4.22;;
27219;SDS011;45274;52.266;10.790;2023-11-19T13:15:51;17.52;;;4.20;;
27219;SDS011;45274;52.266;10.790;2023-11-19T13:18:16;24.75;;;4.82;;
27219;SDS011;45274;52.266;10.790;2023-11-19T13:20:45;23.05;;;3.85;;
27219;SDS011;45274;52.266;10.790;2023-11-19T13:23:10;21.48;;;4.68;;
27219;SDS011;45274;52.266;10.790;2023-11-19T13:25:36;22.45;;;4.75;;
27219;SDS011;45274;52.266;10.790;2023-11-19T13:28:02;21.90;;;4.28;;
27219;SDS011;45274;52.266;10.790;2023-11-19T13:30:27;26.95;;;4.32;;
27219;SDS011;45274;52.266;10.790;2023-11-19T13:32:54;23.58;;;4.43;;
27219;SDS011;45274;52.266;10.790;2023-11-19T13:35:22;24.70;;;4.82;;
27219;SDS011;45274;52.266;10.790;2023-11-19T13:37:48;21.88;;;4.75;;
27219;SDS011;45274;52.266;10.790;2023-11-19T13:40:13;24.42;;;4.43;;
27219;SDS011;45274;52.266;10.790;2023-11-19T13:42:41;22.33;;;4.03;;
27219;SDS011;45274;52.266;10.790;2023-11-19T13:45:11;32.60;;;5.25;;
27219;SDS011;45274;52.266;10.790;2023-11-19T13:47:42;20.90;;;3.97;;
27219;SDS011;45274;52.266;10.790;2023-11-19T13:50:09;19.80;;;3.67;;
27219;SDS011;45274;52.266;10.790;2023-11-19T13:52:36;25.08;;;4.57;;
27219;SDS011;45274;52.266;10.790;2023-11-19T13:55:03;23.83;;;4.18;;
27219;SDS011;45274;52.266;10.790;2023-11-19T13:57:33;26.30;;;3.90;;
27219;SDS011;45274;52.266;10.790;2023-11-19T14:00:00;20.58;;;3.63;;
27219;SDS011;45274;52.266;10.790;2023-11-19T14:02:30;18.55;;;4.15;;
27219;SDS011;45274;52.266;10.790;2023-11-19T14:04:55;19.83;;;3.58;;
27219;SDS011;45274;52.266;10.790;2023-11-19T14:07:20;17.70;;;3.90;;
27219;SDS011;45274;52.266;10.790;2023-11-19T14:09:46;24.05;;;4.63;;
27219;SDS011;45274;52.266;10.790;2023-11-19T14:12:11;24.23;;;4.38;;
27219;SDS011;45274;52.266;10.790;2023-11-19T14:14:38;22.58;;;3.78;;
27219;SDS011;45274;52.266;10.790;2023-11-19T14:17:04;14.30;;;3.60;;
27219;SDS011;45274;52.266;10.790;2023-11-19T14:19:31;17.85;;;3.60;;
27219;SDS011;45274;52.266;10.790;2023-11-19T14:21:56;20.52;;;4.03;;
27219;SDS011;45274;52.266;10.790;2023-11-19T14:24:22;21.55;;;4.03;;
27219;SDS011;45274;52.266;10.790;2023-11-19T14:26:49;23.42;;;3.72;;
27219;SDS011;45274;52.266;10.790;2023-11-19T14:29:16;16.27;;;3.30;;
27219;SDS011;45274;52.266;10.790;2023-11-19T14:31:42;18.73;;;3.63;;
27219;SDS011;45274;52.266;10.790;2023-11-19T14:34:07;21.70;;;3.58;;
27219;SDS011;45274;52.266;10.790;2023-11-19T14:36:33;20.42;;;3.70;;
27219;SDS011;45274;52.266;10.790;2023-11-19T14:38:58;19.17;;;3.65;;
27219;SDS011;45274;52.266;10.790;2023-11-19T14:41:24;17.98;;;3.83;;
27219;SDS011;45274;52.266;10.790;2023-11-19T14:43:49;36.67;;;7.40;;
27219;SDS011;45274;52.266;10.790;2023-11-19T14:46:15;15.82;;;4.28;;
27219;SDS011;45274;52.266;10.790;2023-11-19T14:48:40;20.05;;;3.58;;
27219;SDS011;45274;52.266;10.790;2023-11-19T14:51:05;18.70;;;3.95;;
27219;SDS011;45274;52.266;10.790;2023-11-19T14:53:31;19.65;;;4.18;;
27219;SDS011;45274;52.266;10.790;2023-11-19T14:55:58;22.60;;;4.88;;
27219;SDS011;45274;52.266;10.790;2023-11-19T14:58:23;21.15;;;4.10;;
27219;SDS011;45274;52.266;10.790;2023-11-19T15:00:50;21.58;;;4.10;;